Time;durP1;ratioP1;P1;durP2;ratioP2;P2;SDS_P1;SDS_P2;PMS_P1;PMS_P2;Temp;Humidity;BMP_temperature;BMP_pressure;BME280_temperature;BME280_humidity;BME280_pressure;Samples;Min_cycle;Max_cycle;Signal;HPM_P1;HPM_P2
2022/08/04 00:02:22;;;;;;;14.10;9.50;;;;;;;21.83;57.41;99240.77;238117;1192;139478;-57
2022/08/04 00:07:38;;;;;;;12.60;9.10;;;;;;;21.76;57.36;99235.05;238304;1192;140690;-60
2022/08/04 00:12:50;;;;;;;12.10;9.60;;;;;;;21.67;57.39;99231.84;238107;1192;139373;-59
2022/08/04 00:17:58;;;;;;;16.50;9.00;;;;;;;21.57;57.56;99232.34;238245;1192;139795;-59
2022/08/04 00:23:02;;;;;;;13.90;9.80;;;;;;;21.47;57.63;99240.02;238209;1192;140648;-57
2022/08/04 00:28:05;;;;;;;11.00;9.20;;;;;;;21.40;57.79;99239.70;238166;1192;139108;-58
2022/08/04 00:33:09;;;;;;;11.10;8.20;;;;;;;21.37;58.01;99243.62;238288;1192;140696;-57
2022/08/04 00:38:16;;;;;;;12.10;9.30;;;;;;;21.37;58.11;99241.63;238207;1192;141301;-60
2022/08/04 00:44:18;;;;;;;11.00;9.20;;;;;;;21.35;58.07;99237.12;238340;1192;139508;-56
2022/08/04 00:50:08;;;;;;;11.90;8.70;;;;;;;21.31;58.14;99240.62;237013;1195;139402;-59
2022/08/04 00:55:23;;;;;;;10.60;9.30;;;;;;;21.21;58.19;99244.51;238329;1192;139663;-61
2022/08/04 01:00:31;;;;;;;11.10;8.90;;;;;;;21.13;58.11;99242.48;238386;1192;140651;-57
2022/08/04 01:05:46;;;;;;;9.50;8.40;;;;;;;21.06;58.25;99243.38;238281;1192;139245;-59
2022/08/04 01:11:03;;;;;;;10.30;9.20;;;;;;;20.98;58.44;99242.67;238077;1192;139142;-60
2022/08/04 01:16:10;;;;;;;10.30;8.20;;;;;;;20.91;58.50;99245.77;238265;1192;140433;-57
2022/08/04 01:21:30;;;;;;;10.50;8.40;;;;;;;20.89;58.73;99246.84;238315;1193;140658;-60
2022/08/04 01:27:03;;;;;;;9.60;8.40;;;;;;;20.91;58.93;99245.09;238393;1192;140457;-57
2022/08/04 01:32:17;;;;;;;11.30;8.00;;;;;;;20.95;59.11;99243.94;238404;1192;139111;-58
2022/08/04 01:37:47;;;;;;;9.10;8.00;;;;;;;20.93;59.13;99243.38;237865;1192;139954;-56
2022/08/04 01:42:52;;;;;;;11.20;8.60;;;;;;;20.89;59.07;99238.98;237808;1193;139652;-60
2022/08/04 01:47:56;;;;;;;9.40;8.20;;;;;;;20.84;59.28;99237.45;238399;1192;139290;-59
2022/08/04 01:53:00;;;;;;;8.80;7.90;;;;;;;20.79;59.31;99241.73;238424;1192;139006;-58
2022/08/04 01:58:04;;;;;;;9.40;7.60;;;;;;;20.72;59.39;99239.40;238352;1192;139357;-61
2022/08/04 02:03:08;;;;;;;9.50;7.60;;;;;;;20.70;59.41;99237.66;238397;1192;140374;-58
2022/08/04 02:08:25;;;;;;;10.80;8.00;;;;;;;20.70;59.55;99235.30;238431;1192;139894;-61
2022/08/04 02:13:59;;;;;;;9.30;7.90;;;;;;;20.68;59.55;99230.80;238497;1192;139631;-58
2022/08/04 02:19:22;;;;;;;14.60;8.50;;;;;;;20.66;59.74;99231.00;237720;1192;139593;-60
2022/08/04 02:24:26;;;;;;;12.20;8.50;;;;;;;20.60;59.70;99232.30;238366;1192;139514;-60
2022/08/04 02:29:42;;;;;;;11.20;8.50;;;;;;;20.54;59.81;99229.36;238127;1192;139501;-57
2022/08/04 02:34:59;;;;;;;9.50;8.00;;;;;;;20.46;59.64;99226.80;238396;1192;140172;-60
2022/08/04 02:40:05;;;;;;;10.60;8.50;;;;;;;20.39;59.90;99227.04;238302;1192;140218;-60
2022/08/04 02:45:10;;;;;;;11.60;7.70;;;;;;;20.36;59.95;99219.42;237994;1192;140553;-58
2022/08/04 02:50:13;;;;;;;;;;;;;;;20.35;59.99;99220.08;238235;1192;139559;-57
2022/08/04 02:55:32;;;;;;;9.00;8.10;;;;;;;20.30;60.03;99223.54;238267;1192;126822;-59
2022/08/04 03:00:36;;;;;;;10.80;8.30;;;;;;;20.26;60.08;99221.23;238105;1192;139080;-59
2022/08/04 03:06:09;;;;;;;10.40;7.80;;;;;;;20.23;60.20;99221.21;238334;1192;139675;-60
2022/08/04 03:11:42;;;;;;;107.20;83.30;;;;;;;20.19;60.24;99221.66;238119;1192;139675;-60
2022/08/04 03:17:11;;;;;;;13.20;11.20;;;;;;;20.17;60.49;99223.04;238333;1192;140647;-61
2022/08/04 03:22:14;;;;;;;69.00;50.60;;;;;;;20.19;60.59;99222.72;238349;1192;140185;-59
2022/08/04 03:27:47;;;;;;;11.00;8.60;;;;;;;20.26;60.58;99220.88;238364;1192;140435;-59
2022/08/04 03:33:12;;;;;;;9.60;8.20;;;;;;;20.35;60.64;99220.73;238351;1192;140610;-58
2022/08/04 03:38:33;;;;;;;205.80;156.40;;;;;;;20.40;60.54;99220.04;238435;1192;139376;-59
2022/08/04 03:43:52;;;;;;;15.10;11.90;;;;;;;20.45;60.58;99226.73;238501;1192;141220;-56
2022/08/04 03:49:39;;;;;;;9.50;8.50;;;;;;;20.50;60.53;99228.58;237773;1192;140484;-59
2022/08/04 03:55:08;;;;;;;9.30;8.30;;;;;;;20.51;60.44;99228.11;238301;1192;139616;-61
2022/08/04 04:00:17;;;;;;;167.90;128.40;;;;;;;20.51;60.41;99229.43;238128;1192;138935;-60
2022/08/04 04:05:29;;;;;;;12.70;9.40;;;;;;;20.53;60.67;99233.52;238333;1192;141167;-58
2022/08/04 04:11:06;;;;;;;16.10;8.60;;;;;;;20.63;60.56;99229.38;238304;1192;141501;-62
2022/08/04 04:16:36;;;;;;;11.30;8.40;;;;;;;20.72;60.49;99231.45;238000;1192;140737;-59
2022/08/04 04:22:22;;;;;;;10.00;8.10;;;;;;;20.83;60.43;99239.60;238229;1192;140552;-58
2022/08/04 04:27:47;;;;;;;10.10;8.90;;;;;;;20.82;60.25;99240.01;238333;1192;140301;-59
2022/08/04 04:33:07;;;;;;;11.30;8.80;;;;;;;20.79;60.26;99243.73;238318;1192;139601;-59
2022/08/04 04:38:18;;;;;;;9.50;8.60;;;;;;;20.76;60.14;99240.77;238437;1192;140118;-60
2022/08/04 04:44:02;;;;;;;10.20;8.60;;;;;;;20.74;60.17;99247.20;238314;1192;139767;-61
2022/08/04 04:49:39;;;;;;;10.90;7.30;;;;;;;20.71;60.20;99255.55;238367;1192;139336;-60
2022/08/04 04:55:09;;;;;;;12.90;9.30;;;;;;;20.74;60.26;99258.14;238120;1192;140554;-60
2022/08/04 05:00:12;;;;;;;10.80;9.30;;;;;;;20.80;60.59;99262.05;238172;1192;141206;-58
2022/08/04 05:05:33;;;;;;;14.10;8.90;;;;;;;20.87;60.68;99262.77;237888;1193;140603;-60
2022/08/04 05:10:55;;;;;;;12.50;9.00;;;;;;;20.94;60.65;99263.54;238026;1192;139374;-57
2022/08/04 05:16:05;;;;;;;11.90;9.30;;;;;;;21.02;60.90;99259.45;238223;1192;139541;-58
2022/08/04 05:21:32;;;;;;;12.80;8.30;;;;;;;21.13;61.02;99261.95;238254;1192;140134;-58
2022/08/04 05:26:43;;;;;;;12.70;8.50;;;;;;;21.26;61.00;99262.39;238392;1192;140615;-59
2022/08/04 05:31:51;;;;;;;11.60;8.10;;;;;;;21.42;61.27;99266.55;238405;1192;139825;-54
2022/08/04 05:37:01;;;;;;;12.60;7.80;;;;;;;21.61;61.25;99271.29;238286;1192;139232;-56
2022/08/04 05:42:05;;;;;;;12.50;8.00;;;;;;;21.77;61.30;99271.95;238166;1192;139982;-58
2022/08/04 05:47:12;;;;;;;11.20;8.10;;;;;;;21.95;61.22;99272.95;238196;1192;139483;-57
2022/08/04 05:52:17;;;;;;;16.00;7.90;;;;;;;22.13;61.10;99274.30;238339;1192;139169;-59
2022/08/04 05:57:20;;;;;;;;;;;;;;;22.26;60.93;99272.70;238422;1192;139509;-58
2022/08/04 06:02:26;;;;;;;12.80;8.40;;;;;;;22.35;60.78;99276.47;238486;1192;126343;-57
2022/08/04 06:07:29;;;;;;;11.50;7.70;;;;;;;22.42;60.64;99276.55;238410;1192;139325;-59
2022/08/04 06:12:48;;;;;;;12.80;7.50;;;;;;;22.53;60.58;99280.89;238254;1192;140845;-57
2022/08/04 06:17:55;;;;;;;10.30;7.10;;;;;;;22.67;60.45;99282.10;238130;1192;139779;-56
2022/08/04 06:23:19;;;;;;;10.10;7.50;;;;;;;22.80;60.45;99280.93;238337;1192;139394;-58
2022/08/04 06:28:23;;;;;;;13.50;7.50;;;;;;;22.92;60.26;99284.80;238438;1192;139123;-57
2022/08/04 06:33:32;;;;;;;12.70;7.30;;;;;;;23.00;60.22;99285.20;238321;1192;140643;-60
2022/08/04 06:38:57;;;;;;;10.80;7.00;;;;;;;23.10;60.09;99282.98;238220;1193;139760;-61
2022/08/04 06:44:09;;;;;;;12.20;7.50;;;;;;;23.17;60.02;99282.02;238329;1192;139715;-60
2022/08/04 06:49:12;;;;;;;14.80;7.60;;;;;;;23.26;59.74;99282.33;238191;1192;139346;-62
2022/08/04 06:54:15;;;;;;;14.00;7.40;;;;;;;23.33;59.60;99283.70;238343;1192;139603;-60
2022/08/04 06:59:21;;;;;;;14.30;8.00;;;;;;;23.43;59.47;99278.80;238359;1192;139051;-57
2022/08/04 07:04:24;;;;;;;16.40;8.50;;;;;;;23.52;59.32;99280.96;238255;1192;140805;-63
2022/08/04 07:09:27;;;;;;;14.90;7.90;;;;;;;23.63;59.30;99276.73;238357;1192;141234;-60
2022/08/04 07:14:34;;;;;;;15.30;8.00;;;;;;;23.75;59.01;99277.73;238511;1192;141253;-58
2022/08/04 07:19:38;;;;;;;16.20;7.30;;;;;;;23.88;58.84;99272.96;238497;1192;139745;-58
2022/08/04 07:24:41;;;;;;;13.90;7.00;;;;;;;24.01;58.54;99268.64;237741;1192;139691;-59
2022/08/04 07:29:46;;;;;;;23.60;7.90;;;;;;;24.13;58.12;99269.98;238325;1192;139118;-60
2022/08/04 07:34:50;;;;;;;16.40;7.50;;;;;;;24.24;57.83;99271.44;238480;1192;140842;-61
2022/08/04 07:39:54;;;;;;;16.90;6.60;;;;;;;24.38;57.62;99270.73;238353;1192;140400;-60
2022/08/04 07:44:58;;;;;;;12.80;6.10;;;;;;;24.51;57.14;99271.90;238194;1192;139723;-59
2022/08/04 07:50:02;;;;;;;11.30;5.90;;;;;;;24.59;56.56;99271.13;238330;1192;139462;-55
2022/08/04 07:55:06;;;;;;;10.00;4.80;;;;;;;24.69;56.20;99270.70;238317;1192;139690;-61
2022/08/04 08:00:11;;;;;;;12.30;4.60;;;;;;;24.81;55.83;99271.46;238164;1192;140775;-58
2022/08/04 08:05:15;;;;;;;;;;;;;;;24.93;55.33;99268.94;238309;1192;140246;-61
2022/08/04 08:10:19;;;;;;;10.40;3.60;;;;;;;25.04;55.01;99266.91;238312;1192;126351;-61
2022/08/04 08:15:23;;;;;;;9.50;3.80;;;;;;;25.15;54.19;99269.98;238205;1192;139350;-58
2022/08/04 08:20:30;;;;;;;12.10;4.90;;;;;;;25.25;53.81;99268.60;238256;1192;139338;-59
2022/08/04 08:25:33;;;;;;;20.40;10.40;;;;;;;25.35;53.51;99267.95;238129;1192;140738;-57
2022/08/04 08:30:37;;;;;;;10.30;5.00;;;;;;;25.43;53.31;99265.16;237993;1192;140139;-58
2022/08/04 08:35:51;;;;;;;9.50;4.40;;;;;;;25.52;52.94;99265.38;238182;1192;139391;-60
2022/08/04 08:41:24;;;;;;;11.60;4.40;;;;;;;25.53;52.47;99263.66;238174;1192;142140;-57
2022/08/04 08:46:36;;;;;;;4.40;3.70;;;;;;;25.56;52.24;99266.02;238121;1192;140098;-58
2022/08/04 08:52:08;;;;;;;11.60;3.80;;;;;;;25.64;51.88;99271.52;237982;1192;139106;-57
2022/08/04 08:57:11;;;;;;;7.20;3.00;;;;;;;25.78;51.36;99271.48;238168;1192;139212;-57
2022/08/04 09:02:17;;;;;;;6.30;2.80;;;;;;;25.93;50.77;99270.89;238411;1192;140255;-58
2022/08/04 09:07:46;;;;;;;12.00;2.90;;;;;;;26.09;50.08;99266.95;238320;1192;139358;-59
2022/08/04 09:12:58;;;;;;;6.20;3.50;;;;;;;26.24;49.88;99266.05;238139;1192;139279;-59
2022/08/04 09:18:22;;;;;;;7.30;2.70;;;;;;;26.39;49.58;99269.81;238139;1192;139348;-56
2022/08/04 09:24:02;;;;;;;6.10;3.20;;;;;;;26.51;49.20;99259.95;238150;1192;139824;-59
2022/08/04 09:29:52;;;;;;;7.00;3.10;;;;;;;26.58;48.81;99265.86;238137;1192;139407;-60
2022/08/04 09:35:40;;;;;;;3.30;2.30;;;;;;;26.60;48.44;99268.79;238322;1192;138837;-57
2022/08/04 09:40:54;;;;;;;5.00;3.50;;;;;;;26.69;47.66;99262.37;236795;1196;139641;-59
2022/08/04 09:46:19;;;;;;;3.80;2.60;;;;;;;26.93;47.39;99258.97;237717;1192;139412;-57
2022/08/04 09:51:40;;;;;;;4.90;2.00;;;;;;;27.16;47.12;99255.77;238231;1192;140892;-58
2022/08/04 09:57:21;;;;;;;3.90;2.40;;;;;;;27.24;46.49;99254.57;238190;1192;141499;-59
2022/08/04 10:02:27;;;;;;;4.00;2.40;;;;;;;27.40;46.45;99249.57;238405;1192;139301;-60
2022/08/04 10:07:36;;;;;;;3.10;2.60;;;;;;;27.56;46.30;99244.85;238194;1192;139989;-58
2022/08/04 10:13:20;;;;;;;15.70;12.00;;;;;;;27.69;45.87;99240.52;238398;1192;139254;-57
2022/08/04 10:19:10;;;;;;;5.50;2.90;;;;;;;27.85;45.95;99238.38;237990;1192;140326;-59
2022/08/04 10:24:58;;;;;;;5.50;2.40;;;;;;;28.10;45.74;99239.52;238083;1192;139536;-59
2022/08/04 10:30:10;;;;;;;5.90;3.20;;;;;;;28.33;45.19;99233.55;238033;1193;139240;-57
2022/08/04 10:35:22;;;;;;;7.50;3.20;;;;;;;28.50;45.28;99221.54;238238;1192;140281;-60
2022/08/04 10:41:10;;;;;;;11.20;2.70;;;;;;;28.68;45.35;99224.02;238095;1192;139133;-60
2022/08/04 10:46:22;;;;;;;6.20;3.00;;;;;;;28.80;45.04;99224.34;238221;1192;140093;-60
2022/08/04 10:51:35;;;;;;;7.20;2.80;;;;;;;28.86;44.93;99222.20;238022;1193;139168;-60
2022/08/04 10:57:07;;;;;;;5.40;3.50;;;;;;;29.01;44.62;99224.84;238154;1192;139152;-57
2022/08/04 11:02:25;;;;;;;5.70;2.90;;;;;;;29.14;44.34;99223.22;238334;1192;139463;-59
2022/08/04 11:07:32;;;;;;;4.10;2.60;;;;;;;29.26;44.10;99222.21;238247;1192;141887;-58
2022/08/04 11:12:38;;;;;;;4.50;2.50;;;;;;;29.35;43.56;99228.33;238072;1192;138935;-60
2022/08/04 11:17:45;;;;;;;5.80;2.90;;;;;;;29.50;43.52;99223.48;238186;1192;139471;-57
2022/08/04 11:23:10;;;;;;;3.80;2.70;;;;;;;29.60;43.18;99218.98;238199;1192;139664;-57
2022/08/04 11:28:23;;;;;;;6.90;2.70;;;;;;;29.68;42.90;99219.31;238198;1192;140309;-58
2022/08/04 11:33:36;;;;;;;7.00;2.80;;;;;;;29.78;42.64;99217.22;238225;1193;139390;-59
2022/08/04 11:38:50;;;;;;;4.40;2.50;;;;;;;29.82;42.38;99214.59;238153;1192;139370;-59
2022/08/04 11:43:57;;;;;;;3.70;2.70;;;;;;;29.90;42.16;99218.92;238404;1192;139517;-59
2022/08/04 11:49:25;;;;;;;4.10;2.60;;;;;;;30.04;41.92;99218.83;237784;1193;139546;-58
2022/08/04 11:54:30;;;;;;;2.70;2.40;;;;;;;30.18;41.75;99213.72;238302;1192;139425;-59
2022/08/04 11:59:35;;;;;;;6.40;2.30;;;;;;;30.30;41.14;99209.11;238164;1193;139391;-57
2022/08/04 12:04:54;;;;;;;6.90;2.30;;;;;;;30.39;41.26;99209.02;238432;1192;139606;-59
2022/08/04 12:10:09;;;;;;;5.10;2.40;;;;;;;30.53;40.95;99202.02;238389;1192;139015;-59
2022/08/04 12:15:12;;;;;;;4.60;2.20;;;;;;;30.59;40.75;99194.92;238268;1192;139440;-59
2022/08/04 12:20:21;;;;;;;37.30;29.90;;;;;;;30.71;40.60;99191.17;238203;1193;138983;-60
2022/08/04 12:25:46;;;;;;;5.80;2.90;;;;;;;30.82;40.06;99179.78;238109;1192;139950;-58
2022/08/04 12:30:58;;;;;;;5.70;2.80;;;;;;;30.98;40.24;99180.55;238258;1192;139474;-60
2022/08/04 12:36:30;;;;;;;4.10;2.70;;;;;;;31.14;39.97;99179.99;238312;1192;139472;-60
2022/08/04 12:42:00;;;;;;;4.40;2.60;;;;;;;31.26;39.49;99176.92;238169;1192;139311;-59
2022/08/04 12:47:08;;;;;;;3.80;2.50;;;;;;;31.30;39.12;99177.20;237749;1192;139893;-57
2022/08/04 12:52:39;;;;;;;4.80;2.90;;;;;;;31.38;38.98;99166.43;238080;1193;139020;-59
2022/08/04 12:58:14;;;;;;;4.40;2.40;;;;;;;31.53;38.96;99166.31;238102;1192;139179;-59
2022/08/04 13:03:19;;;;;;;4.10;2.60;;;;;;;31.65;38.70;99159.24;238206;1193;138990;-59
2022/08/04 13:08:23;;;;;;;3.10;2.80;;;;;;;31.78;38.57;99155.44;238215;1193;139521;-58
2022/08/04 13:13:28;;;;;;;2.90;2.40;;;;;;;31.89;38.22;99153.59;237895;1193;139193;-59
2022/08/04 13:18:34;;;;;;;3.60;2.40;;;;;;;31.99;38.28;99144.62;238211;1192;139100;-58
2022/08/04 13:23:38;;;;;;;5.00;2.70;;;;;;;32.07;37.63;99138.59;238245;1192;139209;-59
2022/08/04 13:29:05;;;;;;;4.50;2.40;;;;;;;32.07;37.30;99138.84;238156;1192;140327;-59
2022/08/04 13:34:19;;;;;;;4.20;2.80;;;;;;;32.24;37.31;99138.79;238322;1192;139908;-59
2022/08/04 13:39:23;;;;;;;2.60;2.20;;;;;;;32.44;37.31;99139.84;238175;1192;161567;-59
2022/08/04 13:44:33;;;;;;;2.70;2.40;;;;;;;32.66;37.11;99138.53;238304;1192;140080;-59
2022/08/04 13:49:36;;;;;;;80.80;72.10;;;;;;;32.86;36.81;99134.20;238232;1192;140573;-59
2022/08/04 13:54:59;;;;;;;6.10;4.50;;;;;;;32.96;36.41;99131.26;238223;1193;140103;-59
2022/08/04 14:00:08;;;;;;;2.50;2.30;;;;;;;33.06;36.21;99130.04;238147;1192;139372;-59
2022/08/04 14:05:24;;;;;;;4.50;2.50;;;;;;;33.16;35.92;99125.45;238244;1192;140097;-59
2022/08/04 14:10:33;;;;;;;5.20;2.40;;;;;;;33.22;35.77;99119.80;238225;1193;139288;-59
2022/08/04 14:15:44;;;;;;;4.30;2.00;;;;;;;33.28;35.34;99118.39;238091;1192;139317;-58
2022/08/04 14:21:11;;;;;;;3.70;2.30;;;;;;;33.35;35.49;99110.23;237986;1193;139592;-58
2022/08/04 14:26:22;;;;;;;5.40;2.30;;;;;;;33.36;34.95;99105.22;238402;1192;139177;-59
2022/08/04 14:31:35;;;;;;;4.80;2.10;;;;;;;33.23;34.87;99103.77;238186;1193;139282;-60
2022/08/04 14:37:06;;;;;;;3.10;2.00;;;;;;;33.06;34.74;99104.33;238250;1193;139342;-59
2022/08/04 14:42:42;;;;;;;2.40;1.90;;;;;;;32.77;34.39;99099.96;238139;1193;139219;-59
2022/08/04 14:47:46;;;;;;;6.10;2.30;;;;;;;32.36;34.22;99095.81;238029;1193;139578;-57
2022/08/04 14:53:02;;;;;;;5.30;2.10;;;;;;;32.06;34.47;99090.47;237993;1192;139469;-58
2022/08/04 14:58:05;;;;;;;260.40;226.40;;;;;;;31.76;34.45;99089.66;238074;1193;139088;-59
2022/08/04 15:03:30;;;;;;;6.50;5.80;;;;;;;31.46;34.68;99091.93;238206;1192;140146;-59
2022/08/04 15:08:33;;;;;;;4.90;2.60;;;;;;;31.16;34.77;99091.69;238398;1193;139947;-59
2022/08/04 15:13:37;;;;;;;3.50;2.30;;;;;;;30.82;34.96;99093.40;238222;1192;139185;-59
2022/08/04 15:18:40;;;;;;;5.90;3.30;;;;;;;30.58;35.02;99090.88;238119;1192;138960;-57
2022/08/04 15:23:43;;;;;;;6.30;2.40;;;;;;;30.36;35.23;99094.16;238203;1192;139324;-59
2022/08/04 15:28:51;;;;;;;8.40;2.90;;;;;;;30.19;35.38;99091.23;238288;1192;138959;-60
2022/08/04 15:33:55;;;;;;;5.00;2.70;;;;;;;29.99;35.65;99090.17;238301;1192;139064;-58
2022/08/04 15:39:12;;;;;;;9.40;5.30;;;;;;;29.84;35.77;99087.10;237500;1192;139350;-59
2022/08/04 15:44:29;;;;;;;9.60;2.40;;;;;;;29.74;35.56;99087.35;238321;1192;139085;-59
2022/08/04 15:49:32;;;;;;;12.30;2.40;;;;;;;29.66;35.99;99083.98;238223;1193;140089;-59
2022/08/04 15:54:36;;;;;;;2.50;2.30;;;;;;;29.60;35.59;99083.43;238134;1192;139262;-58
2022/08/04 16:00:00;;;;;;;5.30;3.10;;;;;;;29.47;35.98;99080.16;238074;1193;138833;-59
2022/08/04 16:05:13;;;;;;;4.70;2.60;;;;;;;29.30;36.41;99083.17;238248;1192;139249;-57
2022/08/04 16:10:28;;;;;;;6.60;2.30;;;;;;;29.21;36.76;99081.80;238257;1192;140126;-58
2022/08/04 16:15:37;;;;;;;3.40;2.10;;;;;;;29.12;36.67;99084.91;238107;1192;139657;-57
2022/08/04 16:20:45;;;;;;;3.80;2.60;;;;;;;29.05;36.69;99083.95;238174;1192;139306;-60
2022/08/04 16:25:53;;;;;;;4.00;3.00;;;;;;;28.97;36.77;99076.69;238376;1192;140218;-58
2022/08/04 16:31:10;;;;;;;3.60;2.70;;;;;;;28.86;36.99;99070.70;238287;1192;139408;-58
2022/08/04 16:36:15;;;;;;;3.40;2.40;;;;;;;28.75;37.12;99068.06;238235;1192;139522;-58
2022/08/04 16:41:38;;;;;;;153.20;124.30;;;;;;;28.67;37.27;99069.38;237998;1192;139477;-59
2022/08/04 16:46:41;;;;;;;18.10;15.40;;;;;;;28.60;37.48;99071.14;238204;1192;141085;-57
2022/08/04 16:52:06;;;;;;;4.70;3.10;;;;;;;28.53;37.53;99067.48;238323;1192;140611;-59
2022/08/04 16:57:15;;;;;;;5.30;3.00;;;;;;;28.46;37.71;99062.75;238372;1192;139599;-59
2022/08/04 17:02:23;;;;;;;5.30;2.70;;;;;;;28.40;37.82;99065.35;238317;1192;139107;-58
2022/08/04 17:07:27;;;;;;;6.40;2.90;;;;;;;28.28;37.87;99065.33;238250;1192;139247;-57
2022/08/04 17:12:30;;;;;;;3.30;2.40;;;;;;;28.11;38.19;99066.60;238319;1192;140042;-59
2022/08/04 17:17:33;;;;;;;3.60;2.60;;;;;;;27.97;38.57;99068.43;238189;1192;139195;-57
2022/08/04 17:23:30;;;;;;;4.00;2.60;;;;;;;27.87;38.90;99071.89;238137;1192;139248;-59
2022/08/04 17:28:54;;;;;;;7.00;2.60;;;;;;;27.79;39.11;99068.64;238273;1192;138931;-59
2022/08/04 17:34:01;;;;;;;3.50;2.40;;;;;;;27.75;39.38;99069.19;238383;1192;139564;-59
2022/08/04 17:39:19;;;;;;;6.30;3.00;;;;;;;27.70;39.65;99064.73;238209;1192;139432;-60
2022/08/04 17:44:36;;;;;;;3.10;2.60;;;;;;;27.65;39.91;99064.41;238302;1192;139230;-59
2022/08/04 17:49:39;;;;;;;4.70;2.60;;;;;;;27.57;40.07;99063.17;238017;1192;140091;-59
2022/08/04 17:55:00;;;;;;;3.80;2.30;;;;;;;27.52;40.21;99061.17;238132;1192;139229;-59
2022/08/04 18:00:06;;;;;;;4.80;2.60;;;;;;;27.45;40.31;99059.52;238210;1192;139898;-57
2022/08/04 18:05:29;;;;;;;4.80;2.50;;;;;;;27.39;40.60;99065.83;238189;1192;139475;-59
2022/08/04 18:10:54;;;;;;;7.90;2.80;;;;;;;27.29;40.81;99067.67;238225;1192;139411;-60
2022/08/04 18:16:03;;;;;;;6.40;3.10;;;;;;;27.20;41.01;99070.85;238190;1192;139390;-58
2022/08/04 18:21:06;;;;;;;5.70;2.50;;;;;;;27.12;41.24;99077.89;238139;1192;139016;-58
2022/08/04 18:26:09;;;;;;;5.10;2.80;;;;;;;27.05;41.33;99078.23;238317;1192;139347;-59
2022/08/04 18:31:20;;;;;;;7.60;3.10;;;;;;;26.97;41.56;99084.46;238134;1192;140446;-58
2022/08/04 18:36:24;;;;;;;270.90;220.30;;;;;;;26.85;41.83;99090.36;237899;1192;140188;-59
2022/08/04 18:41:40;;;;;;;17.70;13.80;;;;;;;26.75;42.07;99085.40;238280;1192;139856;-59
2022/08/04 18:47:04;;;;;;;6.80;3.90;;;;;;;26.64;42.29;99091.54;238022;1192;139777;-58
2022/08/04 18:52:25;;;;;;;5.70;3.60;;;;;;;26.56;42.33;99095.03;238169;1192;139103;-60
2022/08/04 18:57:31;;;;;;;267.20;221.90;;;;;;;26.46;42.64;99099.33;238241;1192;141255;-59
2022/08/04 19:02:54;;;;;;;54.80;44.60;;;;;;;26.37;42.91;99103.70;238229;1192;140519;-59
2022/08/04 19:07:58;;;;;;;;;;;;;;;26.29;42.96;99101.34;238373;1192;139671;-58
2022/08/04 19:13:21;;;;;;;16.20;5.20;;;;;;;26.16;43.22;99101.30;238281;1192;125856;-59
2022/08/04 19:18:29;;;;;;;221.80;180.80;;;;;;;26.07;43.37;99098.13;238268;1192;140494;-58
2022/08/04 19:23:33;;;;;;;14.40;10.10;;;;;;;26.00;43.32;99102.66;238098;1192;139689;-59
2022/08/04 19:28:56;;;;;;;11.00;4.50;;;;;;;25.92;43.31;99105.14;238178;1192;139529;-59
2022/08/04 19:34:00;;;;;;;6.50;4.90;;;;;;;25.82;43.46;99108.46;238221;1192;139421;-58
2022/08/04 19:39:09;;;;;;;8.40;4.50;;;;;;;25.72;43.92;99105.13;238178;1192;139827;-59
2022/08/04 19:44:13;;;;;;;7.10;4.60;;;;;;;25.63;43.73;99099.05;238182;1192;140026;-59
2022/08/04 19:49:19;;;;;;;8.90;3.80;;;;;;;25.52;44.08;99099.91;238108;1192;139399;-60
2022/08/04 19:54:42;;;;;;;9.30;4.30;;;;;;;25.41;44.25;99103.77;238079;1192;142462;-60
2022/08/04 19:59:50;;;;;;;9.30;4.00;;;;;;;25.31;44.33;99102.12;238209;1192;138959;-60
2022/08/04 20:04:56;;;;;;;293.70;261.50;;;;;;;25.20;44.33;99105.19;238233;1192;139330;-61
2022/08/04 20:10:00;;;;;;;22.00;16.30;;;;;;;25.12;44.58;99103.51;238243;1192;139877;-60
2022/08/04 20:15:07;;;;;;;9.80;5.10;;;;;;;25.02;44.70;99101.58;238085;1192;139858;-61
2022/08/04 20:20:14;;;;;;;10.80;5.00;;;;;;;24.90;44.90;99104.70;238299;1192;140050;-61
2022/08/04 20:25:17;;;;;;;11.60;4.30;;;;;;;24.79;44.93;99108.76;238223;1192;140345;-61
2022/08/04 20:30:39;;;;;;;11.30;4.30;;;;;;;24.68;45.21;99108.10;238255;1192;139653;-61
2022/08/04 20:35:42;;;;;;;6.40;4.30;;;;;;;24.57;45.32;99107.39;238135;1192;139088;-60
2022/08/04 20:41:06;;;;;;;12.00;4.30;;;;;;;24.50;45.48;99108.98;238277;1192;140822;-63
2022/08/04 20:46:12;;;;;;;6.70;4.00;;;;;;;24.41;45.54;99115.13;238272;1192;139550;-61
2022/08/04 20:51:30;;;;;;;6.60;4.10;;;;;;;24.31;45.67;99114.78;238203;1192;139264;-62
2022/08/04 20:56:41;;;;;;;8.50;4.10;;;;;;;24.22;45.73;99111.14;238454;1192;139202;-60
2022/08/04 21:01:53;;;;;;;5.30;3.70;;;;;;;24.13;45.89;99110.75;238392;1192;139032;-61
2022/08/04 21:06:58;;;;;;;8.40;3.90;;;;;;;24.06;46.02;99108.33;238245;1192;139311;-65
2022/08/04 21:12:03;;;;;;;7.00;4.20;;;;;;;23.98;46.14;99106.29;238065;1192;140254;-61
2022/08/04 21:17:07;;;;;;;6.30;3.80;;;;;;;23.92;46.23;99106.20;238312;1192;139833;-63
2022/08/04 21:22:18;;;;;;;12.50;3.90;;;;;;;23.84;46.43;99107.64;238190;1192;140718;-61
2022/08/04 21:27:35;;;;;;;8.00;4.30;;;;;;;23.76;46.57;99105.89;238325;1192;140164;-59
2022/08/04 21:32:41;;;;;;;9.80;3.80;;;;;;;23.67;46.79;99104.48;238184;1192;139059;-60
2022/08/04 21:37:44;;;;;;;8.00;3.90;;;;;;;23.58;46.93;99104.41;238251;1193;139041;-60
2022/08/04 21:43:02;;;;;;;8.70;3.70;;;;;;;23.50;47.08;99101.60;238257;1192;139377;-60
2022/08/04 21:48:05;;;;;;;5.20;3.40;;;;;;;23.42;47.20;99102.27;238372;1192;139689;-59
2022/08/04 21:53:11;;;;;;;8.50;3.60;;;;;;;23.34;47.37;99099.45;238505;1192;140444;-59
2022/08/04 21:58:14;;;;;;;10.10;4.90;;;;;;;23.25;47.48;99095.52;238113;1192;140024;-60
2022/08/04 22:03:18;;;;;;;6.70;3.90;;;;;;;23.18;47.76;99101.04;237973;1192;139368;-60
2022/08/04 22:08:42;;;;;;;7.80;4.30;;;;;;;23.10;47.94;99099.73;238216;1193;139096;-60
2022/08/04 22:13:52;;;;;;;7.00;4.20;;;;;;;23.03;47.96;99098.93;237771;1192;139346;-60
2022/08/04 22:19:13;;;;;;;8.40;3.80;;;;;;;22.97;48.30;99097.87;238189;1192;139007;-61
2022/08/04 22:24:24;;;;;;;7.50;4.10;;;;;;;22.91;48.50;99094.53;238376;1192;139432;-60
2022/08/04 22:29:31;;;;;;;8.20;4.20;;;;;;;22.85;48.66;99093.55;238303;1192;139230;-61
2022/08/04 22:34:38;;;;;;;6.80;3.90;;;;;;;22.79;48.74;99090.98;238343;1192;139754;-61
2022/08/04 22:39:47;;;;;;;7.10;3.90;;;;;;;22.72;48.66;99088.85;238237;1192;140178;-59
2022/08/04 22:45:01;;;;;;;7.40;4.10;;;;;;;22.65;48.73;99087.14;238291;1192;138980;-61
2022/08/04 22:50:11;;;;;;;9.40;4.10;;;;;;;22.60;48.82;99085.16;238438;1192;139507;-61
2022/08/04 22:55:30;;;;;;;7.40;4.00;;;;;;;22.55;48.85;99085.10;238161;1192;139643;-58
2022/08/04 23:00:53;;;;;;;6.40;4.10;;;;;;;22.54;48.95;99084.77;238380;1192;139158;-62
2022/08/04 23:06:07;;;;;;;9.50;4.10;;;;;;;22.51;49.01;99076.43;238311;1192;139343;-62
2022/08/04 23:11:13;;;;;;;9.00;4.20;;;;;;;22.48;49.13;99064.46;238343;1192;139581;-61
2022/08/04 23:16:17;;;;;;;8.10;4.00;;;;;;;22.44;49.15;99064.09;238262;1192;139877;-62
2022/08/04 23:21:21;;;;;;;8.30;4.40;;;;;;;22.39;49.20;99058.58;238350;1192;139171;-61
2022/08/04 23:26:26;;;;;;;9.70;4.50;;;;;;;22.33;49.27;99057.86;238394;1192;139190;-60
2022/08/04 23:31:30;;;;;;;10.70;4.20;;;;;;;22.28;49.38;99053.63;238386;1192;139581;-60
2022/08/04 23:36:53;;;;;;;9.90;4.50;;;;;;;22.23;49.56;99057.59;238296;1192;139993;-60
2022/08/04 23:41:57;;;;;;;7.90;4.90;;;;;;;22.19;49.67;99052.02;238202;1192;139086;-60
2022/08/04 23:47:00;;;;;;;8.80;4.40;;;;;;;22.18;49.55;99045.89;238286;1192;139617;-61
2022/08/04 23:52:04;;;;;;;8.00;4.80;;;;;;;22.16;49.74;99046.23;238282;1192;139367;-60
2022/08/04 23:57:10;;;;;;;9.50;4.30;;;;;;;22.11;49.71;99043.46;238529;1192;142582;-60
